sensor_id;sensor_type;location;lat;lon;timestamp;temperature;humidity
22974;DHT22;11653;50.848;4.584;2022-09-30T00:01:35;7.80;99.90
22974;DHT22;11653;50.848;4.584;2022-09-30T00:04:01;7.70;99.90
22974;DHT22;11653;50.848;4.584;2022-09-30T00:06:28;7.70;99.90
22974;DHT22;11653;50.848;4.584;2022-09-30T00:08:55;7.60;99.90
22974;DHT22;11653;50.848;4.584;2022-09-30T00:11:25;7.80;99.90
22974;DHT22;11653;50.848;4.584;2022-09-30T00:13:52;7.70;99.90
22974;DHT22;11653;50.848;4.584;2022-09-30T00:16:20;7.60;99.90
22974;DHT22;11653;50.848;4.584;2022-09-30T00:18:46;7.60;99.90
22974;DHT22;11653;50.848;4.584;2022-09-30T00:21:13;7.60;99.90
22974;DHT22;11653;50.848;4.584;2022-09-30T00:23:43;7.70;99.90
22974;DHT22;11653;50.848;4.584;2022-09-30T00:26:15;7.70;99.90
22974;DHT22;11653;50.848;4.584;2022-09-30T00:28:42;7.60;99.90
22974;DHT22;11653;50.848;4.584;2022-09-30T00:31:13;7.60;99.90
22974;DHT22;11653;50.848;4.584;2022-09-30T00:33:39;7.50;99.90
22974;DHT22;11653;50.848;4.584;2022-09-30T00:36:05;7.50;99.90
22974;DHT22;11653;50.848;4.584;2022-09-30T00:38:31;7.60;99.90
22974;DHT22;11653;50.848;4.584;2022-09-30T00:40:57;7.50;99.90
22974;DHT22;11653;50.848;4.584;2022-09-30T00:43:44;7.50;99.90
22974;DHT22;11653;50.848;4.584;2022-09-30T00:46:37;7.50;99.90
22974;DHT22;11653;50.848;4.584;2022-09-30T00:49:18;7.40;99.90
22974;DHT22;11653;50.848;4.584;2022-09-30T00:51:49;7.40;99.90
22974;DHT22;11653;50.848;4.584;2022-09-30T00:54:28;7.40;99.90
22974;DHT22;11653;50.848;4.584;2022-09-30T00:57:00;7.40;99.90
22974;DHT22;11653;50.848;4.584;2022-09-30T00:59:32;7.40;99.90
22974;DHT22;11653;50.848;4.584;2022-09-30T01:01:59;7.40;99.90
22974;DHT22;11653;50.848;4.584;2022-09-30T01:04:28;7.30;99.90
22974;DHT22;11653;50.848;4.584;2022-09-30T01:06:58;7.20;99.90
22974;DHT22;11653;50.848;4.584;2022-09-30T01:09:24;7.20;99.90
22974;DHT22;11653;50.848;4.584;2022-09-30T01:11:50;7.30;99.90
22974;DHT22;11653;50.848;4.584;2022-09-30T01:14:18;7.30;99.90
22974;DHT22;11653;50.848;4.584;2022-09-30T01:19:47;7.30;99.90
22974;DHT22;11653;50.848;4.584;2022-09-30T01:27:52;7.20;99.90
22974;DHT22;11653;50.848;4.584;2022-09-30T01:36:47;7.20;99.90
22974;DHT22;11653;50.848;4.584;2022-09-30T01:41:44;7.00;99.90
22974;DHT22;11653;50.848;4.584;2022-09-30T01:49:58;6.90;99.90
22974;DHT22;11653;50.848;4.584;2022-09-30T01:52:39;7.00;99.90
22974;DHT22;11653;50.848;4.584;2022-09-30T01:55:16;7.00;99.90
22974;DHT22;11653;50.848;4.584;2022-09-30T01:58:08;7.00;99.90
22974;DHT22;11653;50.848;4.584;2022-09-30T02:00:39;7.00;99.90
22974;DHT22;11653;50.848;4.584;2022-09-30T02:03:20;6.90;99.90
22974;DHT22;11653;50.848;4.584;2022-09-30T02:05:58;6.90;99.90
22974;DHT22;11653;50.848;4.584;2022-09-30T02:08:53;6.90;99.90
22974;DHT22;11653;50.848;4.584;2022-09-30T02:11:25;6.90;99.90
22974;DHT22;11653;50.848;4.584;2022-09-30T02:14:19;6.80;99.90
22974;DHT22;11653;50.848;4.584;2022-09-30T02:17:04;6.90;99.90
22974;DHT22;11653;50.848;4.584;2022-09-30T02:19:58;6.90;99.90
22974;DHT22;11653;50.848;4.584;2022-09-30T02:23:09;7.00;99.90
22974;DHT22;11653;50.848;4.584;2022-09-30T02:25:43;7.00;99.90
22974;DHT22;11653;50.848;4.584;2022-09-30T02:28:14;6.90;99.90
22974;DHT22;11653;50.848;4.584;2022-09-30T02:30:45;6.90;99.90
22974;DHT22;11653;50.848;4.584;2022-09-30T02:33:16;6.80;99.90
22974;DHT22;11653;50.848;4.584;2022-09-30T02:35:50;6.80;99.90
22974;DHT22;11653;50.848;4.584;2022-09-30T02:38:19;6.80;99.90
22974;DHT22;11653;50.848;4.584;2022-09-30T02:40:56;6.80;99.90
22974;DHT22;11653;50.848;4.584;2022-09-30T02:43:27;6.80;99.90
22974;DHT22;11653;50.848;4.584;2022-09-30T02:54:41;6.70;99.90
22974;DHT22;11653;50.848;4.584;2022-09-30T02:59:46;6.60;99.90
22974;DHT22;11653;50.848;4.584;2022-09-30T03:02:12;6.60;99.90
22974;DHT22;11653;50.848;4.584;2022-09-30T03:04:39;6.50;99.90
22974;DHT22;11653;50.848;4.584;2022-09-30T03:07:06;6.60;99.90
22974;DHT22;11653;50.848;4.584;2022-09-30T03:09:34;6.60;99.90
22974;DHT22;11653;50.848;4.584;2022-09-30T03:15:32;6.60;99.90
22974;DHT22;11653;50.848;4.584;2022-09-30T03:28:50;6.60;99.90
22974;DHT22;11653;50.848;4.584;2022-09-30T03:31:45;6.50;99.90
22974;DHT22;11653;50.848;4.584;2022-09-30T03:34:27;6.60;99.90
22974;DHT22;11653;50.848;4.584;2022-09-30T03:47:25;6.50;99.90
22974;DHT22;11653;50.848;4.584;2022-09-30T03:49:57;6.40;99.90
22974;DHT22;11653;50.848;4.584;2022-09-30T03:52:26;6.30;99.90
22974;DHT22;11653;50.848;4.584;2022-09-30T03:54:56;6.20;99.90
22974;DHT22;11653;50.848;4.584;2022-09-30T03:57:25;6.30;99.90
22974;DHT22;11653;50.848;4.584;2022-09-30T03:59:58;6.30;99.90
22974;DHT22;11653;50.848;4.584;2022-09-30T04:02:25;6.30;99.90
22974;DHT22;11653;50.848;4.584;2022-09-30T04:04:50;6.30;99.90
22974;DHT22;11653;50.848;4.584;2022-09-30T04:07:16;6.30;99.90
22974;DHT22;11653;50.848;4.584;2022-09-30T04:09:42;6.30;99.90
22974;DHT22;11653;50.848;4.584;2022-09-30T04:12:08;6.30;99.90
22974;DHT22;11653;50.848;4.584;2022-09-30T04:14:34;6.30;99.90
22974;DHT22;11653;50.848;4.584;2022-09-30T04:17:01;6.30;99.90
22974;DHT22;11653;50.848;4.584;2022-09-30T04:19:27;6.30;99.90
22974;DHT22;11653;50.848;4.584;2022-09-30T04:21:54;6.20;99.90
22974;DHT22;11653;50.848;4.584;2022-09-30T04:24:20;6.20;99.90
22974;DHT22;11653;50.848;4.584;2022-09-30T04:26:46;6.30;99.90
22974;DHT22;11653;50.848;4.584;2022-09-30T04:29:12;6.30;99.90
22974;DHT22;11653;50.848;4.584;2022-09-30T04:31:38;6.30;99.90
22974;DHT22;11653;50.848;4.584;2022-09-30T04:34:03;6.20;99.90
22974;DHT22;11653;50.848;4.584;2022-09-30T04:36:29;6.20;99.90
22974;DHT22;11653;50.848;4.584;2022-09-30T04:38:55;6.10;99.90
22974;DHT22;11653;50.848;4.584;2022-09-30T04:41:20;6.20;99.90
22974;DHT22;11653;50.848;4.584;2022-09-30T04:43:47;6.20;99.90
22974;DHT22;11653;50.848;4.584;2022-09-30T04:46:18;6.10;99.90
22974;DHT22;11653;50.848;4.584;2022-09-30T04:48:45;6.10;99.90
22974;DHT22;11653;50.848;4.584;2022-09-30T04:51:16;6.10;99.90
22974;DHT22;11653;50.848;4.584;2022-09-30T04:53:42;6.10;99.90
22974;DHT22;11653;50.848;4.584;2022-09-30T04:56:08;6.10;99.90
22974;DHT22;11653;50.848;4.584;2022-09-30T04:58:35;6.20;99.90
22974;DHT22;11653;50.848;4.584;2022-09-30T05:01:03;6.20;99.90
22974;DHT22;11653;50.848;4.584;2022-09-30T05:03:29;6.20;99.90
22974;DHT22;11653;50.848;4.584;2022-09-30T05:05:55;6.10;99.90
22974;DHT22;11653;50.848;4.584;2022-09-30T05:08:21;6.10;99.90
22974;DHT22;11653;50.848;4.584;2022-09-30T05:11:01;6.00;99.90
22974;DHT22;11653;50.848;4.584;2022-09-30T05:13:33;6.10;99.90
22974;DHT22;11653;50.848;4.584;2022-09-30T05:15:59;6.20;99.90
22974;DHT22;11653;50.848;4.584;2022-09-30T05:18:26;6.10;99.90
22974;DHT22;11653;50.848;4.584;2022-09-30T05:20:53;6.00;99.90
22974;DHT22;11653;50.848;4.584;2022-09-30T05:23:19;6.00;99.90
22974;DHT22;11653;50.848;4.584;2022-09-30T05:25:46;6.00;99.90
22974;DHT22;11653;50.848;4.584;2022-09-30T05:28:13;5.90;99.90
22974;DHT22;11653;50.848;4.584;2022-09-30T05:30:39;6.00;99.90
22974;DHT22;11653;50.848;4.584;2022-09-30T05:33:06;6.10;99.90
22974;DHT22;11653;50.848;4.584;2022-09-30T05:35:33;6.10;99.90
22974;DHT22;11653;50.848;4.584;2022-09-30T05:37:59;6.10;99.90
22974;DHT22;11653;50.848;4.584;2022-09-30T05:40:26;6.00;99.90
22974;DHT22;11653;50.848;4.584;2022-09-30T05:42:52;6.00;99.90
22974;DHT22;11653;50.848;4.584;2022-09-30T05:45:17;6.00;99.90
22974;DHT22;11653;50.848;4.584;2022-09-30T05:47:50;5.90;99.90
22974;DHT22;11653;50.848;4.584;2022-09-30T05:50:20;6.00;99.90
22974;DHT22;11653;50.848;4.584;2022-09-30T05:52:47;6.00;99.90
22974;DHT22;11653;50.848;4.584;2022-09-30T05:55:14;6.10;99.90
22974;DHT22;11653;50.848;4.584;2022-09-30T05:57:41;6.10;99.90
22974;DHT22;11653;50.848;4.584;2022-09-30T06:00:08;6.20;99.90
22974;DHT22;11653;50.848;4.584;2022-09-30T06:02:34;6.20;99.90
22974;DHT22;11653;50.848;4.584;2022-09-30T06:05:03;6.10;99.90
22974;DHT22;11653;50.848;4.584;2022-09-30T06:07:29;6.20;99.90
22974;DHT22;11653;50.848;4.584;2022-09-30T06:09:55;6.40;99.90
22974;DHT22;11653;50.848;4.584;2022-09-30T06:12:21;6.60;99.90
22974;DHT22;11653;50.848;4.584;2022-09-30T06:14:47;6.90;99.90
22974;DHT22;11653;50.848;4.584;2022-09-30T06:17:13;7.10;99.90
22974;DHT22;11653;50.848;4.584;2022-09-30T06:19:41;7.20;99.90
22974;DHT22;11653;50.848;4.584;2022-09-30T06:22:06;7.20;99.90
22974;DHT22;11653;50.848;4.584;2022-09-30T06:24:32;7.40;99.90
22974;DHT22;11653;50.848;4.584;2022-09-30T06:26:58;7.50;99.90
22974;DHT22;11653;50.848;4.584;2022-09-30T06:29:23;7.90;99.90
22974;DHT22;11653;50.848;4.584;2022-09-30T06:31:49;8.50;99.90
22974;DHT22;11653;50.848;4.584;2022-09-30T06:34:14;9.30;99.90
22974;DHT22;11653;50.848;4.584;2022-09-30T06:36:40;10.00;99.90
22974;DHT22;11653;50.848;4.584;2022-09-30T06:39:06;10.90;99.90
22974;DHT22;11653;50.848;4.584;2022-09-30T06:41:31;11.90;99.90
22974;DHT22;11653;50.848;4.584;2022-09-30T06:43:57;12.80;99.90
22974;DHT22;11653;50.848;4.584;2022-09-30T06:46:23;13.70;99.90
22974;DHT22;11653;50.848;4.584;2022-09-30T06:48:54;14.60;99.90
22974;DHT22;11653;50.848;4.584;2022-09-30T06:51:19;15.40;99.90
22974;DHT22;11653;50.848;4.584;2022-09-30T06:53:50;16.10;99.90
22974;DHT22;11653;50.848;4.584;2022-09-30T06:56:16;17.00;99.90
22974;DHT22;11653;50.848;4.584;2022-09-30T06:58:42;17.60;99.90
22974;DHT22;11653;50.848;4.584;2022-09-30T07:01:09;18.20;97.80
22974;DHT22;11653;50.848;4.584;2022-09-30T07:03:37;18.70;97.50
22974;DHT22;11653;50.848;4.584;2022-09-30T07:06:05;19.30;95.70
22974;DHT22;11653;50.848;4.584;2022-09-30T07:08:32;19.70;95.00
22974;DHT22;11653;50.848;4.584;2022-09-30T07:11:00;20.40;94.60
22974;DHT22;11653;50.848;4.584;2022-09-30T07:13:26;20.80;92.70
22974;DHT22;11653;50.848;4.584;2022-09-30T07:15:51;21.20;91.50
22974;DHT22;11653;50.848;4.584;2022-09-30T07:18:20;21.80;90.60
22974;DHT22;11653;50.848;4.584;2022-09-30T07:20:53;22.30;89.40
22974;DHT22;11653;50.848;4.584;2022-09-30T07:23:20;22.80;87.60
22974;DHT22;11653;50.848;4.584;2022-09-30T07:25:54;23.40;85.80
22974;DHT22;11653;50.848;4.584;2022-09-30T07:28:22;23.80;83.30
22974;DHT22;11653;50.848;4.584;2022-09-30T07:30:52;24.30;81.70
22974;DHT22;11653;50.848;4.584;2022-09-30T07:33:19;24.50;78.80
22974;DHT22;11653;50.848;4.584;2022-09-30T07:35:56;24.80;78.10
22974;DHT22;11653;50.848;4.584;2022-09-30T07:38:24;25.40;77.80
22974;DHT22;11653;50.848;4.584;2022-09-30T07:41:02;25.40;75.40
22974;DHT22;11653;50.848;4.584;2022-09-30T07:43:29;25.60;75.50
22974;DHT22;11653;50.848;4.584;2022-09-30T07:46:06;25.90;74.50
22974;DHT22;11653;50.848;4.584;2022-09-30T07:48:36;26.30;72.60
22974;DHT22;11653;50.848;4.584;2022-09-30T07:51:17;26.60;70.70
22974;DHT22;11653;50.848;4.584;2022-09-30T07:53:46;27.00;71.10
22974;DHT22;11653;50.848;4.584;2022-09-30T07:56:13;27.30;70.20
22974;DHT22;11653;50.848;4.584;2022-09-30T07:58:39;27.80;68.50
22974;DHT22;11653;50.848;4.584;2022-09-30T08:01:05;27.70;67.60
22974;DHT22;11653;50.848;4.584;2022-09-30T08:03:33;28.00;66.80
22974;DHT22;11653;50.848;4.584;2022-09-30T08:06:07;28.20;66.40
22974;DHT22;11653;50.848;4.584;2022-09-30T08:08:33;28.40;66.40
22974;DHT22;11653;50.848;4.584;2022-09-30T08:11:00;28.30;64.80
22974;DHT22;11653;50.848;4.584;2022-09-30T08:13:26;28.20;66.20
22974;DHT22;11653;50.848;4.584;2022-09-30T08:15:52;28.20;65.10
22974;DHT22;11653;50.848;4.584;2022-09-30T08:18:18;28.30;65.60
22974;DHT22;11653;50.848;4.584;2022-09-30T08:20:44;28.30;65.70
22974;DHT22;11653;50.848;4.584;2022-09-30T08:23:09;28.50;64.70
22974;DHT22;11653;50.848;4.584;2022-09-30T08:25:35;28.50;64.80
22974;DHT22;11653;50.848;4.584;2022-09-30T08:28:01;28.60;65.00
22974;DHT22;11653;50.848;4.584;2022-09-30T08:30:27;28.60;64.50
22974;DHT22;11653;50.848;4.584;2022-09-30T08:32:52;28.50;64.30
22974;DHT22;11653;50.848;4.584;2022-09-30T08:35:18;28.70;65.30
22974;DHT22;11653;50.848;4.584;2022-09-30T08:37:44;28.80;64.40
22974;DHT22;11653;50.848;4.584;2022-09-30T08:40:30;28.50;63.60
22974;DHT22;11653;50.848;4.584;2022-09-30T08:48:33;28.70;63.90
22974;DHT22;11653;50.848;4.584;2022-09-30T08:53:40;28.30;64.40
22974;DHT22;11653;50.848;4.584;2022-09-30T08:56:07;28.20;65.90
22974;DHT22;11653;50.848;4.584;2022-09-30T08:58:40;28.70;64.90
22974;DHT22;11653;50.848;4.584;2022-09-30T09:01:18;29.20;63.30
22974;DHT22;11653;50.848;4.584;2022-09-30T09:03:45;29.90;62.50
22974;DHT22;11653;50.848;4.584;2022-09-30T09:06:27;29.90;60.60
22974;DHT22;11653;50.848;4.584;2022-09-30T09:15:09;29.30;62.70
22974;DHT22;11653;50.848;4.584;2022-09-30T09:20:17;29.90;60.70
22974;DHT22;11653;50.848;4.584;2022-09-30T09:22:48;30.60;60.20
22974;DHT22;11653;50.848;4.584;2022-09-30T09:25:18;31.30;59.20
22974;DHT22;11653;50.848;4.584;2022-09-30T09:30:16;32.10;57.10
22974;DHT22;11653;50.848;4.584;2022-09-30T09:32:55;32.10;56.20
22974;DHT22;11653;50.848;4.584;2022-09-30T09:46:26;32.10;55.20
22974;DHT22;11653;50.848;4.584;2022-09-30T09:54:33;31.60;56.00
22974;DHT22;11653;50.848;4.584;2022-09-30T09:57:19;31.50;55.60
22974;DHT22;11653;50.848;4.584;2022-09-30T10:00:08;31.80;55.00
22974;DHT22;11653;50.848;4.584;2022-09-30T10:03:03;32.40;53.60
22974;DHT22;11653;50.848;4.584;2022-09-30T10:05:32;32.60;52.10
22974;DHT22;11653;50.848;4.584;2022-09-30T10:08:17;31.40;53.10
22974;DHT22;11653;50.848;4.584;2022-09-30T10:13:17;29.80;56.10
22974;DHT22;11653;50.848;4.584;2022-09-30T10:15:43;28.90;58.10
22974;DHT22;11653;50.848;4.584;2022-09-30T10:18:38;28.60;58.80
22974;DHT22;11653;50.848;4.584;2022-09-30T10:21:20;28.30;59.30
22974;DHT22;11653;50.848;4.584;2022-09-30T10:23:46;28.00;61.60
22974;DHT22;11653;50.848;4.584;2022-09-30T10:26:27;27.70;58.50
22974;DHT22;11653;50.848;4.584;2022-09-30T10:29:00;27.60;60.00
22974;DHT22;11653;50.848;4.584;2022-09-30T10:31:40;27.40;61.20
22974;DHT22;11653;50.848;4.584;2022-09-30T10:34:19;27.10;60.60
22974;DHT22;11653;50.848;4.584;2022-09-30T10:36:49;26.70;62.40
22974;DHT22;11653;50.848;4.584;2022-09-30T10:44:57;26.20;63.60
22974;DHT22;11653;50.848;4.584;2022-09-30T10:47:26;25.40;65.50
22974;DHT22;11653;50.848;4.584;2022-09-30T10:50:21;25.30;65.50
22974;DHT22;11653;50.848;4.584;2022-09-30T10:53:00;25.60;66.30
22974;DHT22;11653;50.848;4.584;2022-09-30T10:55:32;26.50;66.00
22974;DHT22;11653;50.848;4.584;2022-09-30T11:06:40;28.10;58.10
22974;DHT22;11653;50.848;4.584;2022-09-30T11:09:13;28.50;59.10
22974;DHT22;11653;50.848;4.584;2022-09-30T11:12:22;28.40;57.90
22974;DHT22;11653;50.848;4.584;2022-09-30T11:17:51;27.30;59.80
22974;DHT22;11653;50.848;4.584;2022-09-30T11:20:24;27.70;59.50
22974;DHT22;11653;50.848;4.584;2022-09-30T11:22:58;28.10;59.10
22974;DHT22;11653;50.848;4.584;2022-09-30T11:36:53;24.20;66.00
22974;DHT22;11653;50.848;4.584;2022-09-30T11:39:50;23.80;66.60
22974;DHT22;11653;50.848;4.584;2022-09-30T11:44:58;24.20;66.90
22974;DHT22;11653;50.848;4.584;2022-09-30T11:50:34;25.70;64.10
22974;DHT22;11653;50.848;4.584;2022-09-30T11:53:10;25.90;61.90
22974;DHT22;11653;50.848;4.584;2022-09-30T11:55:42;25.60;61.60
22974;DHT22;11653;50.848;4.584;2022-09-30T11:58:16;25.40;62.90
22974;DHT22;11653;50.848;4.584;2022-09-30T12:00:49;25.90;62.10
22974;DHT22;11653;50.848;4.584;2022-09-30T12:03:41;26.30;61.60
22974;DHT22;11653;50.848;4.584;2022-09-30T12:06:25;26.60;59.40
22974;DHT22;11653;50.848;4.584;2022-09-30T12:08:57;26.00;59.20
22974;DHT22;11653;50.848;4.584;2022-09-30T12:14:12;25.20;62.90
22974;DHT22;11653;50.848;4.584;2022-09-30T12:16:40;24.30;64.40
22974;DHT22;11653;50.848;4.584;2022-09-30T12:19:18;23.40;67.00
22974;DHT22;11653;50.848;4.584;2022-09-30T12:22:00;22.50;69.20
22974;DHT22;11653;50.848;4.584;2022-09-30T12:24:37;22.10;72.50
22974;DHT22;11653;50.848;4.584;2022-09-30T12:27:05;21.50;74.90
22974;DHT22;11653;50.848;4.584;2022-09-30T12:29:45;21.60;75.40
22974;DHT22;11653;50.848;4.584;2022-09-30T12:49:16;21.60;76.80
22974;DHT22;11653;50.848;4.584;2022-09-30T12:51:48;21.30;78.20
22974;DHT22;11653;50.848;4.584;2022-09-30T12:54:23;21.30;78.70
22974;DHT22;11653;50.848;4.584;2022-09-30T12:57:03;21.40;80.60
22974;DHT22;11653;50.848;4.584;2022-09-30T12:59:32;21.50;78.20
22974;DHT22;11653;50.848;4.584;2022-09-30T13:02:00;21.30;79.00
22974;DHT22;11653;50.848;4.584;2022-09-30T13:07:25;21.30;76.70
22974;DHT22;11653;50.848;4.584;2022-09-30T13:09:58;20.80;78.90
22974;DHT22;11653;50.848;4.584;2022-09-30T13:12:43;20.60;82.30
22974;DHT22;11653;50.848;4.584;2022-09-30T13:23:56;20.60;85.50
22974;DHT22;11653;50.848;4.584;2022-09-30T13:28:52;20.60;84.50
22974;DHT22;11653;50.848;4.584;2022-09-30T13:31:21;20.60;81.40
22974;DHT22;11653;50.848;4.584;2022-09-30T13:34:11;20.60;82.50
22974;DHT22;11653;50.848;4.584;2022-09-30T13:36:40;20.70;83.10
22974;DHT22;11653;50.848;4.584;2022-09-30T13:42:09;20.70;81.50
22974;DHT22;11653;50.848;4.584;2022-09-30T13:47:41;20.90;83.20
22974;DHT22;11653;50.848;4.584;2022-09-30T13:52:57;21.00;82.30
22974;DHT22;11653;50.848;4.584;2022-09-30T14:00:57;20.70;82.40
22974;DHT22;11653;50.848;4.584;2022-09-30T14:06:17;20.60;83.40
22974;DHT22;11653;50.848;4.584;2022-09-30T14:09:00;20.60;83.40
22974;DHT22;11653;50.848;4.584;2022-09-30T14:11:46;20.60;83.40
22974;DHT22;11653;50.848;4.584;2022-09-30T14:22:08;20.90;82.10
22974;DHT22;11653;50.848;4.584;2022-09-30T14:24:37;20.90;82.20
22974;DHT22;11653;50.848;4.584;2022-09-30T14:32:54;20.70;84.20
22974;DHT22;11653;50.848;4.584;2022-09-30T14:35:34;20.50;83.60
22974;DHT22;11653;50.848;4.584;2022-09-30T14:38:17;20.50;84.00
22974;DHT22;11653;50.848;4.584;2022-09-30T14:40:52;20.50;84.10
22974;DHT22;11653;50.848;4.584;2022-09-30T14:43:24;20.50;85.60
22974;DHT22;11653;50.848;4.584;2022-09-30T14:45:55;20.60;85.10
22974;DHT22;11653;50.848;4.584;2022-09-30T14:48:31;20.50;82.60
22974;DHT22;11653;50.848;4.584;2022-09-30T14:51:07;20.50;81.20
22974;DHT22;11653;50.848;4.584;2022-09-30T14:53:37;20.20;80.60
22974;DHT22;11653;50.848;4.584;2022-09-30T14:56:33;20.00;82.00
22974;DHT22;11653;50.848;4.584;2022-09-30T14:59:10;20.00;83.30
22974;DHT22;11653;50.848;4.584;2022-09-30T15:01:37;20.00;85.80
22974;DHT22;11653;50.848;4.584;2022-09-30T15:06:57;19.80;88.50
22974;DHT22;11653;50.848;4.584;2022-09-30T15:09:36;19.80;86.30
22974;DHT22;11653;50.848;4.584;2022-09-30T15:12:04;19.80;86.30
22974;DHT22;11653;50.848;4.584;2022-09-30T15:14:31;19.80;85.80
22974;DHT22;11653;50.848;4.584;2022-09-30T15:16:58;19.60;84.60
22974;DHT22;11653;50.848;4.584;2022-09-30T15:19:26;19.60;86.20
22974;DHT22;11653;50.848;4.584;2022-09-30T15:21:54;19.80;87.60
22974;DHT22;11653;50.848;4.584;2022-09-30T15:24:23;19.90;87.00
22974;DHT22;11653;50.848;4.584;2022-09-30T15:26:50;20.00;87.50
22974;DHT22;11653;50.848;4.584;2022-09-30T15:29:16;20.10;87.50
22974;DHT22;11653;50.848;4.584;2022-09-30T15:31:45;20.00;86.10
22974;DHT22;11653;50.848;4.584;2022-09-30T15:34:16;19.90;87.40
22974;DHT22;11653;50.848;4.584;2022-09-30T15:36:44;19.80;87.90
22974;DHT22;11653;50.848;4.584;2022-09-30T15:39:25;19.80;88.30
22974;DHT22;11653;50.848;4.584;2022-09-30T15:42:14;19.80;89.20
22974;DHT22;11653;50.848;4.584;2022-09-30T15:44:52;19.50;86.30
22974;DHT22;11653;50.848;4.584;2022-09-30T15:47:17;19.30;85.90
22974;DHT22;11653;50.848;4.584;2022-09-30T15:49:45;19.20;86.20
22974;DHT22;11653;50.848;4.584;2022-09-30T15:52:39;19.10;87.50
22974;DHT22;11653;50.848;4.584;2022-09-30T15:55:35;19.00;89.30
22974;DHT22;11653;50.848;4.584;2022-09-30T15:58:02;18.90;89.60
22974;DHT22;11653;50.848;4.584;2022-09-30T16:00:36;18.70;89.90
22974;DHT22;11653;50.848;4.584;2022-09-30T16:03:25;18.50;89.90
22974;DHT22;11653;50.848;4.584;2022-09-30T16:05:52;18.50;90.40
22974;DHT22;11653;50.848;4.584;2022-09-30T16:10:52;18.30;91.20
22974;DHT22;11653;50.848;4.584;2022-09-30T16:13:23;18.30;91.30
22974;DHT22;11653;50.848;4.584;2022-09-30T16:15:52;18.10;91.40
22974;DHT22;11653;50.848;4.584;2022-09-30T16:18:22;18.10;92.20
22974;DHT22;11653;50.848;4.584;2022-09-30T16:21:00;18.00;91.30
22974;DHT22;11653;50.848;4.584;2022-09-30T16:23:36;17.80;91.70
22974;DHT22;11653;50.848;4.584;2022-09-30T16:28:59;17.70;92.50
22974;DHT22;11653;50.848;4.584;2022-09-30T16:31:27;17.50;92.50
22974;DHT22;11653;50.848;4.584;2022-09-30T16:33:54;17.50;93.00
22974;DHT22;11653;50.848;4.584;2022-09-30T16:36:20;17.40;93.40
22974;DHT22;11653;50.848;4.584;2022-09-30T16:38:46;17.40;93.70
22974;DHT22;11653;50.848;4.584;2022-09-30T16:41:12;17.40;94.30
22974;DHT22;11653;50.848;4.584;2022-09-30T16:43:38;17.30;94.20
22974;DHT22;11653;50.848;4.584;2022-09-30T16:46:04;17.20;94.50
22974;DHT22;11653;50.848;4.584;2022-09-30T16:48:30;17.20;95.00
22974;DHT22;11653;50.848;4.584;2022-09-30T16:51:03;17.10;95.30
22974;DHT22;11653;50.848;4.584;2022-09-30T16:53:29;17.10;95.70
22974;DHT22;11653;50.848;4.584;2022-09-30T16:55:55;17.00;95.90
22974;DHT22;11653;50.848;4.584;2022-09-30T16:58:21;16.90;96.00
22974;DHT22;11653;50.848;4.584;2022-09-30T17:00:47;16.80;96.50
22974;DHT22;11653;50.848;4.584;2022-09-30T17:03:14;16.70;97.00
22974;DHT22;11653;50.848;4.584;2022-09-30T17:05:45;16.60;97.50
22974;DHT22;11653;50.848;4.584;2022-09-30T17:08:13;16.50;97.90
22974;DHT22;11653;50.848;4.584;2022-09-30T17:10:41;16.50;98.30
22974;DHT22;11653;50.848;4.584;2022-09-30T17:13:07;16.50;98.70
22974;DHT22;11653;50.848;4.584;2022-09-30T17:15:33;16.40;98.90
22974;DHT22;11653;50.848;4.584;2022-09-30T17:18:04;16.40;99.20
22974;DHT22;11653;50.848;4.584;2022-09-30T17:20:32;16.30;99.70
22974;DHT22;11653;50.848;4.584;2022-09-30T17:22:58;16.30;99.90
22974;DHT22;11653;50.848;4.584;2022-09-30T17:25:23;16.20;99.90
22974;DHT22;11653;50.848;4.584;2022-09-30T17:27:49;16.10;99.90
22974;DHT22;11653;50.848;4.584;2022-09-30T17:30:16;16.00;99.90
22974;DHT22;11653;50.848;4.584;2022-09-30T17:32:42;16.10;99.90
22974;DHT22;11653;50.848;4.584;2022-09-30T17:35:09;15.90;99.90
22974;DHT22;11653;50.848;4.584;2022-09-30T17:37:34;15.90;99.90
22974;DHT22;11653;50.848;4.584;2022-09-30T17:40:02;15.80;99.90
22974;DHT22;11653;50.848;4.584;2022-09-30T17:42:48;15.70;99.90
22974;DHT22;11653;50.848;4.584;2022-09-30T17:45:33;15.60;99.90
22974;DHT22;11653;50.848;4.584;2022-09-30T17:47:58;15.60;99.90
22974;DHT22;11653;50.848;4.584;2022-09-30T17:50:24;15.50;99.90
22974;DHT22;11653;50.848;4.584;2022-09-30T17:52:50;15.50;99.90
22974;DHT22;11653;50.848;4.584;2022-09-30T17:55:17;15.40;99.90
22974;DHT22;11653;50.848;4.584;2022-09-30T17:57:42;15.40;99.90
22974;DHT22;11653;50.848;4.584;2022-09-30T18:00:08;15.30;99.90
22974;DHT22;11653;50.848;4.584;2022-09-30T18:02:36;15.30;99.90
22974;DHT22;11653;50.848;4.584;2022-09-30T18:05:03;15.20;99.90
22974;DHT22;11653;50.848;4.584;2022-09-30T18:07:29;15.10;99.90
22974;DHT22;11653;50.848;4.584;2022-09-30T18:09:54;15.10;99.90
22974;DHT22;11653;50.848;4.584;2022-09-30T18:12:20;15.00;99.90
22974;DHT22;11653;50.848;4.584;2022-09-30T18:14:46;15.00;99.90
22974;DHT22;11653;50.848;4.584;2022-09-30T18:17:11;14.90;99.90
22974;DHT22;11653;50.848;4.584;2022-09-30T18:19:37;14.90;99.90
22974;DHT22;11653;50.848;4.584;2022-09-30T18:22:03;14.90;99.90
22974;DHT22;11653;50.848;4.584;2022-09-30T18:24:28;14.90;99.90
22974;DHT22;11653;50.848;4.584;2022-09-30T18:27:13;14.90;99.90
22974;DHT22;11653;50.848;4.584;2022-09-30T18:29:39;14.90;99.90
22974;DHT22;11653;50.848;4.584;2022-09-30T18:32:05;14.90;99.90
22974;DHT22;11653;50.848;4.584;2022-09-30T18:34:32;14.90;99.90
22974;DHT22;11653;50.848;4.584;2022-09-30T18:36:59;14.80;99.90
22974;DHT22;11653;50.848;4.584;2022-09-30T18:39:29;14.80;99.90
22974;DHT22;11653;50.848;4.584;2022-09-30T18:41:55;14.70;99.90
22974;DHT22;11653;50.848;4.584;2022-09-30T18:44:21;14.70;99.90
22974;DHT22;11653;50.848;4.584;2022-09-30T18:46:47;14.70;99.90
22974;DHT22;11653;50.848;4.584;2022-09-30T18:49:12;14.80;99.90
22974;DHT22;11653;50.848;4.584;2022-09-30T18:51:38;14.80;99.90
22974;DHT22;11653;50.848;4.584;2022-09-30T18:54:04;14.80;99.90
22974;DHT22;11653;50.848;4.584;2022-09-30T18:56:31;14.90;99.90
22974;DHT22;11653;50.848;4.584;2022-09-30T18:59:01;14.90;99.90
22974;DHT22;11653;50.848;4.584;2022-09-30T19:01:29;14.90;99.90
22974;DHT22;11653;50.848;4.584;2022-09-30T19:03:55;14.80;99.90
22974;DHT22;11653;50.848;4.584;2022-09-30T19:06:21;14.80;99.90
22974;DHT22;11653;50.848;4.584;2022-09-30T19:08:46;14.80;99.90
22974;DHT22;11653;50.848;4.584;2022-09-30T19:11:12;14.80;99.90
22974;DHT22;11653;50.848;4.584;2022-09-30T19:13:42;14.90;99.90
22974;DHT22;11653;50.848;4.584;2022-09-30T19:16:09;14.90;99.90
22974;DHT22;11653;50.848;4.584;2022-09-30T19:18:36;14.90;99.90
22974;DHT22;11653;50.848;4.584;2022-09-30T19:21:08;14.90;99.90
22974;DHT22;11653;50.848;4.584;2022-09-30T19:23:35;14.90;99.90